createdAt,value
2023-05-21T00:02:00.305Z,15.62
2023-05-21T00:07:02.485Z,15.75
2023-05-21T00:12:08.221Z,15.74
2023-05-21T00:17:10.536Z,15.64
2023-05-21T00:22:14.328Z,15.68
2023-05-21T00:27:16.654Z,15.66
2023-05-21T00:32:18.792Z,15.65
2023-05-21T00:37:21.824Z,15.39
2023-05-21T00:42:27.385Z,15.37
2023-05-21T00:47:29.725Z,15.24
2023-05-21T00:52:32.116Z,15.24
2023-05-21T00:57:37.237Z,15.03
2023-05-21T01:02:39.608Z,15.05
2023-05-21T01:07:41.926Z,14.93
2023-05-21T01:12:44.964Z,14.88
2023-05-21T01:17:48.897Z,14.77
2023-05-21T01:22:54.681Z,14.85
2023-05-21T01:27:57.947Z,14.88
2023-05-21T01:33:02.760Z,14.91
2023-05-21T01:38:22.809Z,15.03
2023-05-21T01:43:27.969Z,14.76
2023-05-21T01:48:31.069Z,14.59
2023-05-21T01:53:33.625Z,14.61
2023-05-21T01:58:36.159Z,14.63
2023-05-21T02:03:38.815Z,14.40
2023-05-21T02:08:41.044Z,14.43
2023-05-21T02:13:43.358Z,14.35
2023-05-21T02:18:46.494Z,14.18
2023-05-21T02:23:48.911Z,14.44
2023-05-21T02:28:52.830Z,14.48
2023-05-21T02:33:55.023Z,14.46
2023-05-21T02:38:57.821Z,14.12
2023-05-21T02:44:00.218Z,14.31
2023-05-21T02:49:02.623Z,14.28
2023-05-21T02:54:04.802Z,14.20
2023-05-21T02:59:07.083Z,14.25
2023-05-21T03:04:09.292Z,14.32
2023-05-21T03:09:11.496Z,14.20
2023-05-21T03:14:14.476Z,13.99
2023-05-21T03:19:16.792Z,14.00
2023-05-21T03:24:19.018Z,14.13
2023-05-21T03:29:21.953Z,14.13
2023-05-21T03:34:24.613Z,14.25
2023-05-21T03:39:26.766Z,14.45
2023-05-21T03:44:32.420Z,14.56
2023-05-21T03:49:34.639Z,14.92
2023-05-21T03:54:37.208Z,15.22
2023-05-21T03:59:39.402Z,15.44
2023-05-21T04:04:41.625Z,15.87
2023-05-21T04:09:43.913Z,16.09
2023-05-21T04:14:46.739Z,16.26
2023-05-21T04:19:49.160Z,16.47
2023-05-21T04:24:52.731Z,16.62
2023-05-21T04:29:54.881Z,16.62
2023-05-21T04:34:57.599Z,16.67
2023-05-21T04:40:01.599Z,16.55
2023-05-21T04:45:04.015Z,16.31
2023-05-21T04:50:06.923Z,16.24
2023-05-21T04:55:09.263Z,16.13
2023-05-21T05:00:12.637Z,16.27
2023-05-21T05:05:14.973Z,16.19
2023-05-21T05:10:17.506Z,16.36
2023-05-21T05:15:19.727Z,16.52
2023-05-21T05:20:22.039Z,16.71
2023-05-21T05:25:24.412Z,17.18
2023-05-21T05:30:26.888Z,17.53
2023-05-21T05:35:29.054Z,17.92
2023-05-21T05:40:31.346Z,18.10
2023-05-21T05:45:33.492Z,18.29
2023-05-21T05:50:35.632Z,18.74
2023-05-21T05:55:38.229Z,18.86
2023-05-21T06:00:40.987Z,19.09
2023-05-21T06:05:43.239Z,19.33
2023-05-21T06:10:45.562Z,19.45
2023-05-21T06:15:47.751Z,19.59
2023-05-21T06:20:49.977Z,19.81
2023-05-21T06:25:52.168Z,19.87
2023-05-21T06:30:54.351Z,20.05
2023-05-21T06:35:56.496Z,20.22
2023-05-21T06:40:58.675Z,20.32
2023-05-21T06:46:01.659Z,20.55
2023-05-21T06:51:04.083Z,20.75
2023-05-21T06:56:06.519Z,20.89
2023-05-21T07:01:08.724Z,21.08
2023-05-21T07:06:11.006Z,21.27
2023-05-21T07:11:13.804Z,21.54
2023-05-21T07:16:17.928Z,21.77
2023-05-21T07:21:20.247Z,21.80
2023-05-21T07:26:26.400Z,22.02
2023-05-21T07:31:28.697Z,22.23
2023-05-21T07:36:31.239Z,22.49
2023-05-21T07:41:33.609Z,22.71
2023-05-21T07:46:35.951Z,23.34
2023-05-21T07:51:38.298Z,24.64
2023-05-21T07:56:40.454Z,25.22
2023-05-21T08:01:43.449Z,26.64
2023-05-21T08:06:45.772Z,27.64
2023-05-21T08:11:47.915Z,28.29
2023-05-21T08:16:50.192Z,28.92
2023-05-21T08:21:53.094Z,29.69
2023-05-21T08:26:55.458Z,30.11
2023-05-21T08:31:57.740Z,30.44
2023-05-21T08:37:00.067Z,31.01
2023-05-21T08:42:22.568Z,31.73
2023-05-21T08:47:34.999Z,32.29
2023-05-21T08:52:37.721Z,32.89
2023-05-21T08:57:44.127Z,32.32
2023-05-21T09:02:46.937Z,34.10
2023-05-21T09:08:28.055Z,34.73
2023-05-21T09:13:32.610Z,35.05
2023-05-21T09:18:34.879Z,34.82
2023-05-21T09:23:37.173Z,35.64
2023-05-21T09:28:39.487Z,35.66
2023-05-21T09:33:47.917Z,35.68
2023-05-21T09:38:52.070Z,36.43
2023-05-21T09:43:59.833Z,35.99
2023-05-21T09:49:02.060Z,36.13
2023-05-21T09:54:04.220Z,36.47
2023-05-21T09:59:07.432Z,36.93
2023-05-21T10:04:10.556Z,36.17
2023-05-21T10:09:15.752Z,37.15
2023-05-21T10:14:22.888Z,37.66
2023-05-21T10:19:25.841Z,36.39
2023-05-21T10:24:29.005Z,37.36
2023-05-21T10:29:32.215Z,38.18
2023-05-21T10:34:36.004Z,38.20
2023-05-21T10:39:39.487Z,37.89
2023-05-21T10:45:19.149Z,38.44
2023-05-21T10:50:44.891Z,38.61
2023-05-21T10:56:08.940Z,38.05
2023-05-21T11:01:12.573Z,36.67
2023-05-21T11:06:25.384Z,36.54
2023-05-21T11:11:50.923Z,34.98
2023-05-21T11:16:53.266Z,34.75
2023-05-21T11:21:56.103Z,33.79
2023-05-21T11:27:01.634Z,36.14
2023-05-21T11:32:05.762Z,37.74
2023-05-21T11:37:37.300Z,39.93
2023-05-21T11:42:39.835Z,39.66
2023-05-21T11:47:44.294Z,39.58
2023-05-21T11:52:46.876Z,39.81
2023-05-21T11:57:53.033Z,39.10
2023-05-21T12:02:57.100Z,40.23
2023-05-21T12:07:59.939Z,38.98
2023-05-21T12:13:02.504Z,40.01
2023-05-21T12:18:04.825Z,41.23
2023-05-21T12:23:07.056Z,39.65
2023-05-21T12:28:09.229Z,38.07
2023-05-21T12:33:12.269Z,38.27
2023-05-21T12:38:14.540Z,39.08
2023-05-21T12:43:16.774Z,38.82
2023-05-21T12:48:18.961Z,40.13
2023-05-21T12:53:21.204Z,37.14
2023-05-21T12:58:23.409Z,39.89
2023-05-21T13:03:27.174Z,40.89
2023-05-21T13:08:29.627Z,36.69
2023-05-21T13:13:32.083Z,36.69
2023-05-21T13:18:34.283Z,38.27
2023-05-21T13:23:36.479Z,39.59
2023-05-21T13:28:39.510Z,38.67
2023-05-21T13:33:43.006Z,37.86
2023-05-21T13:38:45.321Z,36.92
2023-05-21T13:43:47.523Z,38.77
2023-05-21T13:48:49.803Z,38.41
2023-05-21T13:53:51.959Z,38.17
2023-05-21T13:58:54.211Z,37.96
2023-05-21T14:03:56.520Z,37.96
2023-05-21T14:09:00.007Z,39.04
2023-05-21T14:14:03.024Z,39.51
2023-05-21T14:19:05.232Z,39.18
2023-05-21T14:24:07.858Z,39.82
2023-05-21T14:29:10.526Z,39.68
2023-05-21T14:34:12.682Z,38.81
2023-05-21T14:39:14.921Z,38.65
2023-05-21T14:44:17.140Z,38.02
2023-05-21T14:49:19.361Z,38.01
2023-05-21T14:54:21.606Z,38.87
2023-05-21T14:59:23.876Z,38.80
2023-05-21T15:04:26.630Z,38.26
2023-05-21T15:09:28.839Z,37.43
2023-05-21T15:14:31.126Z,35.39
2023-05-21T15:19:33.497Z,35.18
2023-05-21T15:24:36.464Z,35.93
2023-05-21T15:29:38.976Z,35.67
2023-05-21T15:34:41.242Z,36.43
2023-05-21T15:39:51.331Z,36.69
2023-05-21T15:44:53.495Z,35.50
2023-05-21T15:49:56.441Z,35.18
2023-05-21T15:54:58.602Z,33.67
2023-05-21T16:00:00.936Z,31.31
2023-05-21T16:05:03.312Z,31.63
2023-05-21T16:10:08.215Z,31.06
2023-05-21T16:15:10.921Z,30.96
2023-05-21T16:20:13.524Z,30.86
2023-05-21T16:25:15.858Z,30.61
2023-05-21T16:30:17.986Z,30.52
2023-05-21T16:35:20.404Z,30.00
2023-05-21T16:40:22.694Z,29.69
2023-05-21T16:45:24.857Z,29.25
2023-05-21T16:50:27.044Z,28.90
2023-05-21T16:55:31.705Z,28.45
2023-05-21T17:00:34.326Z,28.29
2023-05-21T17:05:36.776Z,27.91
2023-05-21T17:10:39.234Z,27.48
2023-05-21T17:15:41.519Z,27.19
2023-05-21T17:20:43.938Z,26.82
2023-05-21T17:25:46.414Z,26.34
2023-05-21T17:30:49.654Z,25.93
2023-05-21T17:35:52.110Z,25.26
2023-05-21T17:40:55.634Z,24.72
2023-05-21T17:45:58.385Z,24.27
2023-05-21T17:51:00.590Z,23.74
2023-05-21T17:56:03.523Z,23.27
2023-05-21T18:01:05.992Z,22.82
2023-05-21T18:06:09.499Z,22.44
2023-05-21T18:11:12.022Z,22.11
2023-05-21T18:16:14.234Z,21.79
2023-05-21T18:21:16.566Z,21.60
2023-05-21T18:26:19.949Z,21.45
2023-05-21T18:31:23.229Z,21.39
2023-05-21T18:36:26.699Z,21.22
2023-05-21T18:41:28.972Z,21.04
2023-05-21T18:46:31.702Z,20.99
2023-05-21T18:51:34.049Z,20.82
2023-05-21T18:56:36.230Z,20.58
2023-05-21T19:01:38.638Z,20.26
2023-05-21T19:06:40.842Z,20.11
2023-05-21T19:11:43.167Z,19.87
2023-05-21T19:16:45.483Z,19.76
2023-05-21T19:21:51.219Z,19.63
2023-05-21T19:26:53.547Z,19.53
2023-05-21T19:31:57.446Z,19.44
2023-05-21T19:36:59.666Z,19.39
2023-05-21T19:42:01.966Z,19.48
2023-05-21T19:47:04.465Z,19.39
2023-05-21T19:52:06.708Z,19.41
2023-05-21T19:57:10.961Z,19.35
2023-05-21T20:02:16.990Z,19.18
2023-05-21T20:07:19.210Z,18.96
2023-05-21T20:12:21.393Z,18.89
2023-05-21T20:17:24.587Z,18.81
2023-05-21T20:22:27.870Z,18.86
2023-05-21T20:27:30.266Z,18.83
2023-05-21T20:32:32.411Z,18.63
2023-05-21T20:37:34.573Z,18.55
2023-05-21T20:42:36.798Z,18.69
2023-05-21T20:47:39.224Z,19.00
2023-05-21T20:52:41.523Z,19.24
2023-05-21T20:57:43.823Z,19.43
2023-05-21T21:02:46.109Z,19.49
2023-05-21T21:07:48.391Z,19.61
2023-05-21T21:12:50.677Z,19.62
2023-05-21T21:17:53.050Z,19.55
2023-05-21T21:22:55.845Z,19.48
2023-05-21T21:27:58.090Z,19.36
2023-05-21T21:33:00.595Z,19.46
2023-05-21T21:38:04.977Z,19.64
2023-05-21T21:43:07.324Z,19.64
2023-05-21T21:48:09.539Z,19.58
2023-05-21T21:53:14.096Z,19.62
2023-05-21T21:58:16.389Z,19.60
2023-05-21T22:03:18.912Z,19.46
2023-05-21T22:08:21.784Z,19.15
2023-05-21T22:13:26.981Z,18.98
2023-05-21T22:18:39.478Z,18.69
2023-05-21T22:23:42.977Z,18.41
2023-05-21T22:28:45.295Z,18.14
2023-05-21T22:33:47.480Z,17.99
2023-05-21T22:38:49.708Z,17.87
2023-05-21T22:43:52.380Z,17.89
2023-05-21T22:48:54.591Z,17.77
2023-05-21T22:53:56.883Z,17.47
2023-05-21T22:58:59.674Z,17.36
2023-05-21T23:04:01.862Z,17.19
2023-05-21T23:09:07.138Z,17.02
2023-05-21T23:14:09.368Z,17.21
2023-05-21T23:19:14.283Z,17.04
2023-05-21T23:24:16.631Z,16.90
2023-05-21T23:29:19.075Z,16.74
2023-05-21T23:34:21.396Z,16.67
2023-05-21T23:39:23.748Z,16.69
2023-05-21T23:44:25.994Z,16.40
2023-05-21T23:49:28.156Z,16.36
2023-05-21T23:54:30.776Z,16.25
2023-05-21T23:59:33.037Z,16.23
